sensor_id;sensor_type;location;lat;lon;timestamp;P1;P2;P0
37709;PMS5003;60223;34.854;-92.408;2024-01-06T00:00:18;10;9;
37709;PMS5003;60223;34.854;-92.408;2024-01-06T00:02:43;9;9;
37709;PMS5003;60223;34.854;-92.408;2024-01-06T00:05:09;8;8;
37709;PMS5003;60223;34.854;-92.408;2024-01-06T00:07:34;7;7;
37709;PMS5003;60223;34.854;-92.408;2024-01-06T00:10:01;7;7;
37709;PMS5003;60223;34.854;-92.408;2024-01-06T00:12:27;8;8;
37709;PMS5003;60223;34.854;-92.408;2024-01-06T00:14:53;7;5;
37709;PMS5003;60223;34.854;-92.408;2024-01-06T00:17:17;11;7;
37709;PMS5003;60223;34.854;-92.408;2024-01-06T00:19:44;6;6;
37709;PMS5003;60223;34.854;-92.408;2024-01-06T00:22:09;8;8;
37709;PMS5003;60223;34.854;-92.408;2024-01-06T00:24:35;7;6;
37709;PMS5003;60223;34.854;-92.408;2024-01-06T00:26:59;6;6;
37709;PMS5003;60223;34.854;-92.408;2024-01-06T00:29:27;7;7;
37709;PMS5003;60223;34.854;-92.408;2024-01-06T00:31:51;7;6;
37709;PMS5003;60223;34.854;-92.408;2024-01-06T00:34:17;9;7;
37709;PMS5003;60223;34.854;-92.408;2024-01-06T00:36:44;7;7;
37709;PMS5003;60223;34.854;-92.408;2024-01-06T00:39:09;6;6;
37709;PMS5003;60223;34.854;-92.408;2024-01-06T00:41:34;8;7;
37709;PMS5003;60223;34.854;-92.408;2024-01-06T00:44:00;5;5;
37709;PMS5003;60223;34.854;-92.408;2024-01-06T00:46:26;8;8;
37709;PMS5003;60223;34.854;-92.408;2024-01-06T00:48:50;6;6;
37709;PMS5003;60223;34.854;-92.408;2024-01-06T00:51:16;7;7;
37709;PMS5003;60223;34.854;-92.408;2024-01-06T00:53:42;9;9;
37709;PMS5003;60223;34.854;-92.408;2024-01-06T00:56:07;5;5;
37709;PMS5003;60223;34.854;-92.408;2024-01-06T00:58:33;6;6;
37709;PMS5003;60223;34.854;-92.408;2024-01-06T01:00:59;7;7;
37709;PMS5003;60223;34.854;-92.408;2024-01-06T01:03:25;10;9;
37709;PMS5003;60223;34.854;-92.408;2024-01-06T01:05:50;8;8;
37709;PMS5003;60223;34.854;-92.408;2024-01-06T01:08:17;9;8;
37709;PMS5003;60223;34.854;-92.408;2024-01-06T01:10:42;8;8;
37709;PMS5003;60223;34.854;-92.408;2024-01-06T01:13:08;6;6;
37709;PMS5003;60223;34.854;-92.408;2024-01-06T01:15:34;9;9;
37709;PMS5003;60223;34.854;-92.408;2024-01-06T01:17:56;7;7;
37709;PMS5003;60223;34.854;-92.408;2024-01-06T01:20:25;6;6;
37709;PMS5003;60223;34.854;-92.408;2024-01-06T01:22:50;8;8;
37709;PMS5003;60223;34.854;-92.408;2024-01-06T01:25:15;7;6;
37709;PMS5003;60223;34.854;-92.408;2024-01-06T01:27:42;7;7;
37709;PMS5003;60223;34.854;-92.408;2024-01-06T01:30:09;9;8;
37709;PMS5003;60223;34.854;-92.408;2024-01-06T01:32:33;6;6;
37709;PMS5003;60223;34.854;-92.408;2024-01-06T01:34:59;8;6;
37709;PMS5003;60223;34.854;-92.408;2024-01-06T01:37:24;12;11;
37709;PMS5003;60223;34.854;-92.408;2024-01-06T01:39:49;8;8;
37709;PMS5003;60223;34.854;-92.408;2024-01-06T01:42:15;6;6;
37709;PMS5003;60223;34.854;-92.408;2024-01-06T01:44:41;5;5;
37709;PMS5003;60223;34.854;-92.408;2024-01-06T01:47:06;7;7;
37709;PMS5003;60223;34.854;-92.408;2024-01-06T01:49:32;7;7;
37709;PMS5003;60223;34.854;-92.408;2024-01-06T01:51:58;13;12;
37709;PMS5003;60223;34.854;-92.408;2024-01-06T01:54:22;6;6;
37709;PMS5003;60223;34.854;-92.408;2024-01-06T01:56:49;9;9;
37709;PMS5003;60223;34.854;-92.408;2024-01-06T01:59:14;9;6;
37709;PMS5003;60223;34.854;-92.408;2024-01-06T02:01:37;5;5;
37709;PMS5003;60223;34.854;-92.408;2024-01-06T02:04:07;9;6;
37709;PMS5003;60223;34.854;-92.408;2024-01-06T02:06:32;5;5;
37709;PMS5003;60223;34.854;-92.408;2024-01-06T02:08:57;7;7;
37709;PMS5003;60223;34.854;-92.408;2024-01-06T02:11:22;8;7;
37709;PMS5003;60223;34.854;-92.408;2024-01-06T02:13:50;7;7;
37709;PMS5003;60223;34.854;-92.408;2024-01-06T02:16:14;8;8;
37709;PMS5003;60223;34.854;-92.408;2024-01-06T02:18:38;9;6;
37709;PMS5003;60223;34.854;-92.408;2024-01-06T02:21:05;7;7;
37709;PMS5003;60223;34.854;-92.408;2024-01-06T02:23:31;8;7;
37709;PMS5003;60223;34.854;-92.408;2024-01-06T02:25:57;8;5;
37709;PMS5003;60223;34.854;-92.408;2024-01-06T02:28:22;8;7;
37709;PMS5003;60223;34.854;-92.408;2024-01-06T02:30:49;7;6;
37709;PMS5003;60223;34.854;-92.408;2024-01-06T02:33:14;6;5;
37709;PMS5003;60223;34.854;-92.408;2024-01-06T02:35:39;7;7;
37709;PMS5003;60223;34.854;-92.408;2024-01-06T02:38:06;7;7;
37709;PMS5003;60223;34.854;-92.408;2024-01-06T02:40:31;5;5;
37709;PMS5003;60223;34.854;-92.408;2024-01-06T02:42:55;7;7;
37709;PMS5003;60223;34.854;-92.408;2024-01-06T02:45:22;8;7;
37709;PMS5003;60223;34.854;-92.408;2024-01-06T02:47:48;6;5;
37709;PMS5003;60223;34.854;-92.408;2024-01-06T02:50:14;7;6;
37709;PMS5003;60223;34.854;-92.408;2024-01-06T02:52:40;9;8;
37709;PMS5003;60223;34.854;-92.408;2024-01-06T02:55:06;5;5;
37709;PMS5003;60223;34.854;-92.408;2024-01-06T02:57:31;7;7;
37709;PMS5003;60223;34.854;-92.408;2024-01-06T02:59:57;6;6;
37709;PMS5003;60223;34.854;-92.408;2024-01-06T03:02:22;6;5;
37709;PMS5003;60223;34.854;-92.408;2024-01-06T03:04:48;7;7;
37709;PMS5003;60223;34.854;-92.408;2024-01-06T03:07:14;4;4;
37709;PMS5003;60223;34.854;-92.408;2024-01-06T03:09:40;5;5;
37709;PMS5003;60223;34.854;-92.408;2024-01-06T03:12:06;6;6;
37709;PMS5003;60223;34.854;-92.408;2024-01-06T03:14:30;6;6;
37709;PMS5003;60223;34.854;-92.408;2024-01-06T03:16:57;6;6;
37709;PMS5003;60223;34.854;-92.408;2024-01-06T03:19:21;6;6;
37709;PMS5003;60223;34.854;-92.408;2024-01-06T03:21:45;6;6;
37709;PMS5003;60223;34.854;-92.408;2024-01-06T03:24:14;5;5;
37709;PMS5003;60223;34.854;-92.408;2024-01-06T03:26:39;6;5;
37709;PMS5003;60223;34.854;-92.408;2024-01-06T03:29:06;7;7;
37709;PMS5003;60223;34.854;-92.408;2024-01-06T03:31:30;7;6;
37709;PMS5003;60223;34.854;-92.408;2024-01-06T03:33:57;5;5;
37709;PMS5003;60223;34.854;-92.408;2024-01-06T03:36:22;4;4;
37709;PMS5003;60223;34.854;-92.408;2024-01-06T03:38:48;5;5;
37709;PMS5003;60223;34.854;-92.408;2024-01-06T03:41:14;7;5;
37709;PMS5003;60223;34.854;-92.408;2024-01-06T03:43:38;5;5;
37709;PMS5003;60223;34.854;-92.408;2024-01-06T03:46:06;7;6;
37709;PMS5003;60223;34.854;-92.408;2024-01-06T03:48:33;8;7;
37709;PMS5003;60223;34.854;-92.408;2024-01-06T03:50:57;7;6;
37709;PMS5003;60223;34.854;-92.408;2024-01-06T03:53:22;4;4;
37709;PMS5003;60223;34.854;-92.408;2024-01-06T03:55:48;5;5;
37709;PMS5003;60223;34.854;-92.408;2024-01-06T03:58:14;4;4;
37709;PMS5003;60223;34.854;-92.408;2024-01-06T04:00:40;8;7;
37709;PMS5003;60223;34.854;-92.408;2024-01-06T04:03:06;6;5;
37709;PMS5003;60223;34.854;-92.408;2024-01-06T04:05:32;3;3;
37709;PMS5003;60223;34.854;-92.408;2024-01-06T04:07:57;6;5;
37709;PMS5003;60223;34.854;-92.408;2024-01-06T04:10:22;6;5;
37709;PMS5003;60223;34.854;-92.408;2024-01-06T04:12:49;4;4;
37709;PMS5003;60223;34.854;-92.408;2024-01-06T04:15:11;6;6;
37709;PMS5003;60223;34.854;-92.408;2024-01-06T04:17:40;4;4;
37709;PMS5003;60223;34.854;-92.408;2024-01-06T04:20:06;4;4;
37709;PMS5003;60223;34.854;-92.408;2024-01-06T04:22:31;5;5;
37709;PMS5003;60223;34.854;-92.408;2024-01-06T04:24:56;7;6;
37709;PMS5003;60223;34.854;-92.408;2024-01-06T04:27:22;5;5;
37709;PMS5003;60223;34.854;-92.408;2024-01-06T04:29:48;5;5;
37709;PMS5003;60223;34.854;-92.408;2024-01-06T04:32:14;4;4;
37709;PMS5003;60223;34.854;-92.408;2024-01-06T04:34:40;4;4;
37709;PMS5003;60223;34.854;-92.408;2024-01-06T04:37:05;5;5;
37709;PMS5003;60223;34.854;-92.408;2024-01-06T04:39:31;4;4;
37709;PMS5003;60223;34.854;-92.408;2024-01-06T04:41:56;3;3;
37709;PMS5003;60223;34.854;-92.408;2024-01-06T04:44:20;4;4;
37709;PMS5003;60223;34.854;-92.408;2024-01-06T04:46:48;4;4;
37709;PMS5003;60223;34.854;-92.408;2024-01-06T04:49:12;3;3;
37709;PMS5003;60223;34.854;-92.408;2024-01-06T04:51:39;4;3;
37709;PMS5003;60223;34.854;-92.408;2024-01-06T04:54:05;4;4;
37709;PMS5003;60223;34.854;-92.408;2024-01-06T04:56:29;5;5;
37709;PMS5003;60223;34.854;-92.408;2024-01-06T04:58:56;4;4;
37709;PMS5003;60223;34.854;-92.408;2024-01-06T05:01:22;5;5;
37709;PMS5003;60223;34.854;-92.408;2024-01-06T05:03:48;7;6;
37709;PMS5003;60223;34.854;-92.408;2024-01-06T05:06:13;5;3;
37709;PMS5003;60223;34.854;-92.408;2024-01-06T05:08:41;5;5;
37709;PMS5003;60223;34.854;-92.408;2024-01-06T05:11:05;6;5;
37709;PMS5003;60223;34.854;-92.408;2024-01-06T05:13:38;5;5;
37709;PMS5003;60223;34.854;-92.408;2024-01-06T05:15:56;3;3;
37709;PMS5003;60223;34.854;-92.408;2024-01-06T05:18:22;4;4;
37709;PMS5003;60223;34.854;-92.408;2024-01-06T05:20:47;4;4;
37709;PMS5003;60223;34.854;-92.408;2024-01-06T05:23:13;4;4;
37709;PMS5003;60223;34.854;-92.408;2024-01-06T05:25:39;3;3;
37709;PMS5003;60223;34.854;-92.408;2024-01-06T05:28:05;4;4;
37709;PMS5003;60223;34.854;-92.408;2024-01-06T05:30:32;4;4;
37709;PMS5003;60223;34.854;-92.408;2024-01-06T05:32:56;4;4;
37709;PMS5003;60223;34.854;-92.408;2024-01-06T05:35:22;3;3;
37709;PMS5003;60223;34.854;-92.408;2024-01-06T05:37:52;5;5;
37709;PMS5003;60223;34.854;-92.408;2024-01-06T05:40:13;3;3;
37709;PMS5003;60223;34.854;-92.408;2024-01-06T05:42:39;4;4;
37709;PMS5003;60223;34.854;-92.408;2024-01-06T05:45:05;2;2;
37709;PMS5003;60223;34.854;-92.408;2024-01-06T05:47:30;3;3;
37709;PMS5003;60223;34.854;-92.408;2024-01-06T05:49:55;4;4;
37709;PMS5003;60223;34.854;-92.408;2024-01-06T05:52:21;2;2;
37709;PMS5003;60223;34.854;-92.408;2024-01-06T05:54:45;3;3;
37709;PMS5003;60223;34.854;-92.408;2024-01-06T05:57:12;4;4;
37709;PMS5003;60223;34.854;-92.408;2024-01-06T05:59:38;3;3;
37709;PMS5003;60223;34.854;-92.408;2024-01-06T06:02:03;3;3;
37709;PMS5003;60223;34.854;-92.408;2024-01-06T06:04:37;3;3;
37709;PMS5003;60223;34.854;-92.408;2024-01-06T06:06:52;5;4;
37709;PMS5003;60223;34.854;-92.408;2024-01-06T06:09:21;3;3;
37709;PMS5003;60223;34.854;-92.408;2024-01-06T06:11:55;6;6;
37709;PMS5003;60223;34.854;-92.408;2024-01-06T06:14:12;4;4;
37709;PMS5003;60223;34.854;-92.408;2024-01-06T06:16:38;4;4;
37709;PMS5003;60223;34.854;-92.408;2024-01-06T06:19:03;2;2;
37709;PMS5003;60223;34.854;-92.408;2024-01-06T06:21:29;3;3;
37709;PMS5003;60223;34.854;-92.408;2024-01-06T06:23:53;3;3;
37709;PMS5003;60223;34.854;-92.408;2024-01-06T06:26:21;3;3;
37709;PMS5003;60223;34.854;-92.408;2024-01-06T06:28:46;3;3;
37709;PMS5003;60223;34.854;-92.408;2024-01-06T06:31:13;2;2;
37709;PMS5003;60223;34.854;-92.408;2024-01-06T06:33:38;4;4;
37709;PMS5003;60223;34.854;-92.408;2024-01-06T06:36:03;2;2;
37709;PMS5003;60223;34.854;-92.408;2024-01-06T06:38:29;3;3;
37709;PMS5003;60223;34.854;-92.408;2024-01-06T06:40:55;3;3;
37709;PMS5003;60223;34.854;-92.408;2024-01-06T06:43:20;4;4;
37709;PMS5003;60223;34.854;-92.408;2024-01-06T06:45:46;3;3;
37709;PMS5003;60223;34.854;-92.408;2024-01-06T06:48:12;3;3;
37709;PMS5003;60223;34.854;-92.408;2024-01-06T06:50:37;2;2;
37709;PMS5003;60223;34.854;-92.408;2024-01-06T06:53:02;2;2;
37709;PMS5003;60223;34.854;-92.408;2024-01-06T06:55:27;1;1;
37709;PMS5003;60223;34.854;-92.408;2024-01-06T06:57:54;2;2;
37709;PMS5003;60223;34.854;-92.408;2024-01-06T07:00:20;3;3;
37709;PMS5003;60223;34.854;-92.408;2024-01-06T07:02:46;1;1;
37709;PMS5003;60223;34.854;-92.408;2024-01-06T07:05:09;3;2;
37709;PMS5003;60223;34.854;-92.408;2024-01-06T07:07:37;4;4;
37709;PMS5003;60223;34.854;-92.408;2024-01-06T07:10:03;3;3;
37709;PMS5003;60223;34.854;-92.408;2024-01-06T07:12:28;4;4;
37709;PMS5003;60223;34.854;-92.408;2024-01-06T07:14:54;3;3;
37709;PMS5003;60223;34.854;-92.408;2024-01-06T07:17:20;1;1;
37709;PMS5003;60223;34.854;-92.408;2024-01-06T07:19:45;4;4;
37709;PMS5003;60223;34.854;-92.408;2024-01-06T07:22:11;3;3;
37709;PMS5003;60223;34.854;-92.408;2024-01-06T07:24:36;3;3;
37709;PMS5003;60223;34.854;-92.408;2024-01-06T07:27:03;3;3;
37709;PMS5003;60223;34.854;-92.408;2024-01-06T07:29:28;4;4;
37709;PMS5003;60223;34.854;-92.408;2024-01-06T07:31:51;3;3;
37709;PMS5003;60223;34.854;-92.408;2024-01-06T07:34:20;3;3;
37709;PMS5003;60223;34.854;-92.408;2024-01-06T07:36:45;2;2;
37709;PMS5003;60223;34.854;-92.408;2024-01-06T07:39:11;4;4;
37709;PMS5003;60223;34.854;-92.408;2024-01-06T07:41:36;3;3;
37709;PMS5003;60223;34.854;-92.408;2024-01-06T07:44:02;2;2;
37709;PMS5003;60223;34.854;-92.408;2024-01-06T07:46:28;4;4;
37709;PMS5003;60223;34.854;-92.408;2024-01-06T07:48:52;2;2;
37709;PMS5003;60223;34.854;-92.408;2024-01-06T07:51:19;3;3;
37709;PMS5003;60223;34.854;-92.408;2024-01-06T07:53:45;2;2;
37709;PMS5003;60223;34.854;-92.408;2024-01-06T07:56:10;4;4;
37709;PMS5003;60223;34.854;-92.408;2024-01-06T07:58:36;3;3;
37709;PMS5003;60223;34.854;-92.408;2024-01-06T08:01:02;5;3;
37709;PMS5003;60223;34.854;-92.408;2024-01-06T08:03:27;2;2;
37709;PMS5003;60223;34.854;-92.408;2024-01-06T08:05:53;1;1;
37709;PMS5003;60223;34.854;-92.408;2024-01-06T08:08:19;3;3;
37709;PMS5003;60223;34.854;-92.408;2024-01-06T08:10:43;4;2;
37709;PMS5003;60223;34.854;-92.408;2024-01-06T08:13:10;3;3;
37709;PMS5003;60223;34.854;-92.408;2024-01-06T08:15:36;2;2;
37709;PMS5003;60223;34.854;-92.408;2024-01-06T08:18:01;3;3;
37709;PMS5003;60223;34.854;-92.408;2024-01-06T08:20:27;2;2;
37709;PMS5003;60223;34.854;-92.408;2024-01-06T08:22:53;1;1;
37709;PMS5003;60223;34.854;-92.408;2024-01-06T08:25:18;2;2;
37709;PMS5003;60223;34.854;-92.408;2024-01-06T08:27:44;1;1;
37709;PMS5003;60223;34.854;-92.408;2024-01-06T08:30:10;2;2;
37709;PMS5003;60223;34.854;-92.408;2024-01-06T08:32:35;3;3;
37709;PMS5003;60223;34.854;-92.408;2024-01-06T08:35:01;2;2;
37709;PMS5003;60223;34.854;-92.408;2024-01-06T08:37:27;2;2;
37709;PMS5003;60223;34.854;-92.408;2024-01-06T08:39:52;4;4;
37709;PMS5003;60223;34.854;-92.408;2024-01-06T08:42:18;2;2;
37709;PMS5003;60223;34.854;-92.408;2024-01-06T08:44:42;3;3;
37709;PMS5003;60223;34.854;-92.408;2024-01-06T08:47:09;3;3;
37709;PMS5003;60223;34.854;-92.408;2024-01-06T08:49:35;2;2;
37709;PMS5003;60223;34.854;-92.408;2024-01-06T08:52:06;2;2;
37709;PMS5003;60223;34.854;-92.408;2024-01-06T08:54:27;1;1;
37709;PMS5003;60223;34.854;-92.408;2024-01-06T08:56:51;3;3;
37709;PMS5003;60223;34.854;-92.408;2024-01-06T08:59:18;1;1;
37709;PMS5003;60223;34.854;-92.408;2024-01-06T09:01:43;3;3;
37709;PMS5003;60223;34.854;-92.408;2024-01-06T09:04:09;2;2;
37709;PMS5003;60223;34.854;-92.408;2024-01-06T09:06:35;2;2;
37709;PMS5003;60223;34.854;-92.408;2024-01-06T09:09:00;3;3;
37709;PMS5003;60223;34.854;-92.408;2024-01-06T09:11:26;3;3;
37709;PMS5003;60223;34.854;-92.408;2024-01-06T09:13:51;3;3;
37709;PMS5003;60223;34.854;-92.408;2024-01-06T09:16:17;2;2;
37709;PMS5003;60223;34.854;-92.408;2024-01-06T09:18:43;3;3;
37709;PMS5003;60223;34.854;-92.408;2024-01-06T09:21:09;2;2;
37709;PMS5003;60223;34.854;-92.408;2024-01-06T09:23:34;3;3;
37709;PMS5003;60223;34.854;-92.408;2024-01-06T09:26:00;2;2;
37709;PMS5003;60223;34.854;-92.408;2024-01-06T09:28:26;2;2;
37709;PMS5003;60223;34.854;-92.408;2024-01-06T09:30:51;2;2;
37709;PMS5003;60223;34.854;-92.408;2024-01-06T09:33:16;1;1;
37709;PMS5003;60223;34.854;-92.408;2024-01-06T09:35:43;2;2;
37709;PMS5003;60223;34.854;-92.408;2024-01-06T09:38:07;2;2;
37709;PMS5003;60223;34.854;-92.408;2024-01-06T09:40:35;3;3;
37709;PMS5003;60223;34.854;-92.408;2024-01-06T09:42:59;2;2;
37709;PMS5003;60223;34.854;-92.408;2024-01-06T09:45:25;2;2;
37709;PMS5003;60223;34.854;-92.408;2024-01-06T09:47:51;3;3;
37709;PMS5003;60223;34.854;-92.408;2024-01-06T09:50:14;4;4;
37709;PMS5003;60223;34.854;-92.408;2024-01-06T09:52:42;3;3;
37709;PMS5003;60223;34.854;-92.408;2024-01-06T09:55:10;3;3;
37709;PMS5003;60223;34.854;-92.408;2024-01-06T09:57:33;3;3;
37709;PMS5003;60223;34.854;-92.408;2024-01-06T09:59:59;3;3;
37709;PMS5003;60223;34.854;-92.408;2024-01-06T10:02:25;3;3;
37709;PMS5003;60223;34.854;-92.408;2024-01-06T10:04:51;2;2;
37709;PMS5003;60223;34.854;-92.408;2024-01-06T10:07:16;3;3;
37709;PMS5003;60223;34.854;-92.408;2024-01-06T10:09:42;3;3;
37709;PMS5003;60223;34.854;-92.408;2024-01-06T10:12:08;1;1;
37709;PMS5003;60223;34.854;-92.408;2024-01-06T10:14:33;2;2;
37709;PMS5003;60223;34.854;-92.408;2024-01-06T10:16:58;2;2;
37709;PMS5003;60223;34.854;-92.408;2024-01-06T10:19:24;0;0;
37709;PMS5003;60223;34.854;-92.408;2024-01-06T10:21:49;2;2;
37709;PMS5003;60223;34.854;-92.408;2024-01-06T10:24:13;2;2;
37709;PMS5003;60223;34.854;-92.408;2024-01-06T10:26:41;3;3;
37709;PMS5003;60223;34.854;-92.408;2024-01-06T10:29:07;3;3;
37709;PMS5003;60223;34.854;-92.408;2024-01-06T10:31:33;1;1;
37709;PMS5003;60223;34.854;-92.408;2024-01-06T10:33:58;3;3;
37709;PMS5003;60223;34.854;-92.408;2024-01-06T10:36:24;5;3;
37709;PMS5003;60223;34.854;-92.408;2024-01-06T10:38:50;4;3;
37709;PMS5003;60223;34.854;-92.408;2024-01-06T10:41:16;2;2;
37709;PMS5003;60223;34.854;-92.408;2024-01-06T10:43:41;2;2;
37709;PMS5003;60223;34.854;-92.408;2024-01-06T10:46:07;2;2;
37709;PMS5003;60223;34.854;-92.408;2024-01-06T10:48:32;2;2;
37709;PMS5003;60223;34.854;-92.408;2024-01-06T10:50:58;2;2;
37709;PMS5003;60223;34.854;-92.408;2024-01-06T10:53:24;2;2;
37709;PMS5003;60223;34.854;-92.408;2024-01-06T10:58:25;2;2;
37709;PMS5003;60223;34.854;-92.408;2024-01-06T11:00:41;2;2;
37709;PMS5003;60223;34.854;-92.408;2024-01-06T11:03:07;3;3;
37709;PMS5003;60223;34.854;-92.408;2024-01-06T11:05:31;2;2;
37709;PMS5003;60223;34.854;-92.408;2024-01-06T11:07:55;1;1;
37709;PMS5003;60223;34.854;-92.408;2024-01-06T11:10:25;3;3;
37709;PMS5003;60223;34.854;-92.408;2024-01-06T11:17:50;3;3;
37709;PMS5003;60223;34.854;-92.408;2024-01-06T11:20:07;4;4;
37709;PMS5003;60223;34.854;-92.408;2024-01-06T11:22:31;4;4;
37709;PMS5003;60223;34.854;-92.408;2024-01-06T11:24:55;2;2;
37709;PMS5003;60223;34.854;-92.408;2024-01-06T11:27:23;2;2;
37709;PMS5003;60223;34.854;-92.408;2024-01-06T11:29:48;3;3;
37709;PMS5003;60223;34.854;-92.408;2024-01-06T11:32:18;4;3;
37709;PMS5003;60223;34.854;-92.408;2024-01-06T11:34:39;3;3;
37709;PMS5003;60223;34.854;-92.408;2024-01-06T11:37:06;2;2;
37709;PMS5003;60223;34.854;-92.408;2024-01-06T11:39:34;3;3;
37709;PMS5003;60223;34.854;-92.408;2024-01-06T11:41:57;3;3;
37709;PMS5003;60223;34.854;-92.408;2024-01-06T11:44:22;2;2;
37709;PMS5003;60223;34.854;-92.408;2024-01-06T11:46:48;2;2;
37709;PMS5003;60223;34.854;-92.408;2024-01-06T11:49:14;2;2;
37709;PMS5003;60223;34.854;-92.408;2024-01-06T11:51:36;3;3;
37709;PMS5003;60223;34.854;-92.408;2024-01-06T11:54:05;2;2;
37709;PMS5003;60223;34.854;-92.408;2024-01-06T11:56:30;4;2;
37709;PMS5003;60223;34.854;-92.408;2024-01-06T11:58:56;2;2;
37709;PMS5003;60223;34.854;-92.408;2024-01-06T12:01:21;3;3;
37709;PMS5003;60223;34.854;-92.408;2024-01-06T12:03:45;3;3;
37709;PMS5003;60223;34.854;-92.408;2024-01-06T12:06:13;3;3;
37709;PMS5003;60223;34.854;-92.408;2024-01-06T12:08:39;3;3;
37709;PMS5003;60223;34.854;-92.408;2024-01-06T12:11:05;4;4;
37709;PMS5003;60223;34.854;-92.408;2024-01-06T12:13:30;3;3;
37709;PMS5003;60223;34.854;-92.408;2024-01-06T12:15:55;2;2;
37709;PMS5003;60223;34.854;-92.408;2024-01-06T12:18:22;2;2;
37709;PMS5003;60223;34.854;-92.408;2024-01-06T12:20:47;3;3;
37709;PMS5003;60223;34.854;-92.408;2024-01-06T12:25:39;3;3;
37709;PMS5003;60223;34.854;-92.408;2024-01-06T12:28:05;2;2;
37709;PMS5003;60223;34.854;-92.408;2024-01-06T12:30:30;3;3;
37709;PMS5003;60223;34.854;-92.408;2024-01-06T12:32:56;3;3;
37709;PMS5003;60223;34.854;-92.408;2024-01-06T12:35:20;2;2;
37709;PMS5003;60223;34.854;-92.408;2024-01-06T12:37:47;3;3;
37709;PMS5003;60223;34.854;-92.408;2024-01-06T12:40:13;2;2;
37709;PMS5003;60223;34.854;-92.408;2024-01-06T12:42:38;2;2;
37709;PMS5003;60223;34.854;-92.408;2024-01-06T12:45:05;2;2;
37709;PMS5003;60223;34.854;-92.408;2024-01-06T12:47:31;3;3;
37709;PMS5003;60223;34.854;-92.408;2024-01-06T12:49:55;3;3;
37709;PMS5003;60223;34.854;-92.408;2024-01-06T12:52:21;3;3;
37709;PMS5003;60223;34.854;-92.408;2024-01-06T12:54:55;3;3;
37709;PMS5003;60223;34.854;-92.408;2024-01-06T12:57:12;3;3;
37709;PMS5003;60223;34.854;-92.408;2024-01-06T12:59:38;3;3;
37709;PMS5003;60223;34.854;-92.408;2024-01-06T13:02:04;3;3;
37709;PMS5003;60223;34.854;-92.408;2024-01-06T13:04:28;3;3;
37709;PMS5003;60223;34.854;-92.408;2024-01-06T13:06:55;3;3;
37709;PMS5003;60223;34.854;-92.408;2024-01-06T13:09:19;3;3;
37709;PMS5003;60223;34.854;-92.408;2024-01-06T13:11:46;2;2;
37709;PMS5003;60223;34.854;-92.408;2024-01-06T13:14:12;2;2;
37709;PMS5003;60223;34.854;-92.408;2024-01-06T13:16:36;2;2;
37709;PMS5003;60223;34.854;-92.408;2024-01-06T13:19:03;2;2;
37709;PMS5003;60223;34.854;-92.408;2024-01-06T13:21:29;2;2;
37709;PMS5003;60223;34.854;-92.408;2024-01-06T13:23:55;3;3;
37709;PMS5003;60223;34.854;-92.408;2024-01-06T13:26:20;2;2;
37709;PMS5003;60223;34.854;-92.408;2024-01-06T13:28:46;3;3;
37709;PMS5003;60223;34.854;-92.408;2024-01-06T13:31:10;3;3;
37709;PMS5003;60223;34.854;-92.408;2024-01-06T13:33:37;2;2;
37709;PMS5003;60223;34.854;-92.408;2024-01-06T13:36:03;3;3;
37709;PMS5003;60223;34.854;-92.408;2024-01-06T13:38:28;3;3;
37709;PMS5003;60223;34.854;-92.408;2024-01-06T13:40:52;2;2;
37709;PMS5003;60223;34.854;-92.408;2024-01-06T13:43:20;4;4;
37709;PMS5003;60223;34.854;-92.408;2024-01-06T13:45:48;2;2;
37709;PMS5003;60223;34.854;-92.408;2024-01-06T13:48:11;4;4;
37709;PMS5003;60223;34.854;-92.408;2024-01-06T13:50:36;2;2;
37709;PMS5003;60223;34.854;-92.408;2024-01-06T13:53:03;3;3;
37709;PMS5003;60223;34.854;-92.408;2024-01-06T13:55:28;5;3;
37709;PMS5003;60223;34.854;-92.408;2024-01-06T13:57:54;3;3;
37709;PMS5003;60223;34.854;-92.408;2024-01-06T14:00:22;3;3;
37709;PMS5003;60223;34.854;-92.408;2024-01-06T14:02:43;3;3;
37709;PMS5003;60223;34.854;-92.408;2024-01-06T14:05:11;4;3;
37709;PMS5003;60223;34.854;-92.408;2024-01-06T14:07:37;3;3;
37709;PMS5003;60223;34.854;-92.408;2024-01-06T14:10:02;4;4;
37709;PMS5003;60223;34.854;-92.408;2024-01-06T14:12:28;3;3;
37709;PMS5003;60223;34.854;-92.408;2024-01-06T14:14:53;4;4;
37709;PMS5003;60223;34.854;-92.408;2024-01-06T14:17:19;6;5;
37709;PMS5003;60223;34.854;-92.408;2024-01-06T14:19:44;4;4;
37709;PMS5003;60223;34.854;-92.408;2024-01-06T14:22:10;2;2;
37709;PMS5003;60223;34.854;-92.408;2024-01-06T14:24:36;3;3;
37709;PMS5003;60223;34.854;-92.408;2024-01-06T14:27:01;4;3;
37709;PMS5003;60223;34.854;-92.408;2024-01-06T14:29:27;3;3;
37709;PMS5003;60223;34.854;-92.408;2024-01-06T14:31:53;2;2;
37709;PMS5003;60223;34.854;-92.408;2024-01-06T14:34:18;4;4;
37709;PMS5003;60223;34.854;-92.408;2024-01-06T14:36:43;2;2;
37709;PMS5003;60223;34.854;-92.408;2024-01-06T14:39:10;3;3;
37709;PMS5003;60223;34.854;-92.408;2024-01-06T14:41:36;4;4;
37709;PMS5003;60223;34.854;-92.408;2024-01-06T14:44:01;2;2;
37709;PMS5003;60223;34.854;-92.408;2024-01-06T14:46:27;4;3;
37709;PMS5003;60223;34.854;-92.408;2024-01-06T14:48:51;3;3;
37709;PMS5003;60223;34.854;-92.408;2024-01-06T14:51:18;3;3;
37709;PMS5003;60223;34.854;-92.408;2024-01-06T14:53:44;3;3;
37709;PMS5003;60223;34.854;-92.408;2024-01-06T14:56:10;4;4;
37709;PMS5003;60223;34.854;-92.408;2024-01-06T14:58:35;6;3;
37709;PMS5003;60223;34.854;-92.408;2024-01-06T15:01:01;4;2;
37709;PMS5003;60223;34.854;-92.408;2024-01-06T15:03:27;2;2;
37709;PMS5003;60223;34.854;-92.408;2024-01-06T15:05:51;2;2;
37709;PMS5003;60223;34.854;-92.408;2024-01-06T15:08:18;4;4;
37709;PMS5003;60223;34.854;-92.408;2024-01-06T15:10:44;3;3;
37709;PMS5003;60223;34.854;-92.408;2024-01-06T15:13:09;2;2;
37709;PMS5003;60223;34.854;-92.408;2024-01-06T15:15:37;3;3;
37709;PMS5003;60223;34.854;-92.408;2024-01-06T15:18:01;4;4;
37709;PMS5003;60223;34.854;-92.408;2024-01-06T15:20:24;3;3;
37709;PMS5003;60223;34.854;-92.408;2024-01-06T15:22:52;3;2;
37709;PMS5003;60223;34.854;-92.408;2024-01-06T15:25:18;3;3;
37709;PMS5003;60223;34.854;-92.408;2024-01-06T15:27:43;3;3;
37709;PMS5003;60223;34.854;-92.408;2024-01-06T15:30:09;3;3;
37709;PMS5003;60223;34.854;-92.408;2024-01-06T15:32:33;3;3;
37709;PMS5003;60223;34.854;-92.408;2024-01-06T15:35:00;2;2;
37709;PMS5003;60223;34.854;-92.408;2024-01-06T15:37:24;3;3;
37709;PMS5003;60223;34.854;-92.408;2024-01-06T15:39:52;5;3;
37709;PMS5003;60223;34.854;-92.408;2024-01-06T15:42:17;3;3;
37709;PMS5003;60223;34.854;-92.408;2024-01-06T15:44:43;2;2;
37709;PMS5003;60223;34.854;-92.408;2024-01-06T15:47:08;2;2;
37709;PMS5003;60223;34.854;-92.408;2024-01-06T15:49:33;4;4;
37709;PMS5003;60223;34.854;-92.408;2024-01-06T15:51:59;3;3;
37709;PMS5003;60223;34.854;-92.408;2024-01-06T15:54:26;4;4;
37709;PMS5003;60223;34.854;-92.408;2024-01-06T15:56:51;2;2;
37709;PMS5003;60223;34.854;-92.408;2024-01-06T15:59:17;5;4;
37709;PMS5003;60223;34.854;-92.408;2024-01-06T16:01:43;3;3;
37709;PMS5003;60223;34.854;-92.408;2024-01-06T16:04:09;2;2;
37709;PMS5003;60223;34.854;-92.408;2024-01-06T16:06:34;3;3;
37709;PMS5003;60223;34.854;-92.408;2024-01-06T16:09:00;4;3;
37709;PMS5003;60223;34.854;-92.408;2024-01-06T16:11:26;3;3;
37709;PMS5003;60223;34.854;-92.408;2024-01-06T16:13:59;7;3;